createdAt,value
2019-05-07T00:00:44.014Z,18.27
2019-05-07T00:03:13.392Z,17.00
2019-05-07T00:05:42.940Z,18.83
2019-05-07T00:08:12.324Z,17.60
2019-05-07T00:10:42.463Z,17.27
2019-05-07T00:13:12.878Z,18.60
2019-05-07T00:15:43.400Z,17.63
2019-05-07T00:18:12.866Z,19.03
2019-05-07T00:20:42.497Z,17.47
2019-05-07T00:23:12.457Z,17.07
2019-05-07T00:25:42.931Z,18.17
2019-05-07T00:28:12.391Z,17.57
2019-05-07T00:30:42.610Z,18.27
2019-05-07T00:33:13.122Z,18.23
2019-05-07T00:35:44.235Z,18.70
2019-05-07T00:38:15.232Z,18.00
2019-05-07T00:40:49.174Z,18.40
2019-05-07T00:43:22.496Z,17.97
2019-05-07T00:45:52.989Z,17.90
2019-05-07T00:48:23.490Z,18.17
2019-05-07T00:50:54.617Z,17.43
2019-05-07T00:53:23.985Z,18.20
2019-05-07T00:55:53.377Z,17.67
2019-05-07T00:58:26.494Z,16.87
2019-05-07T01:00:53.819Z,16.57
2019-05-07T01:03:23.208Z,17.97
2019-05-07T01:05:52.910Z,17.67
2019-05-07T01:08:22.737Z,18.80
2019-05-07T01:10:52.827Z,18.03
2019-05-07T01:13:23.432Z,18.60
2019-05-07T01:15:53.936Z,17.77
2019-05-07T01:18:23.569Z,18.27
2019-05-07T01:20:53.399Z,18.20
2019-05-07T01:23:23.788Z,18.13
2019-05-07T01:25:53.185Z,18.13
2019-05-07T01:28:22.628Z,18.30
2019-05-07T01:30:53.082Z,18.17
2019-05-07T01:33:26.456Z,18.37
2019-05-07T01:36:09.280Z,18.93
2019-05-07T01:38:38.666Z,18.23
2019-05-07T01:41:08.018Z,18.80
2019-05-07T01:43:37.394Z,18.13
2019-05-07T01:46:06.848Z,18.77
2019-05-07T01:48:36.218Z,19.07
2019-05-07T01:51:05.593Z,19.23
2019-05-07T01:53:34.961Z,19.57
2019-05-07T01:56:04.395Z,19.60
2019-05-07T01:58:33.762Z,18.90
2019-05-07T02:01:03.118Z,19.70
2019-05-07T02:03:34.102Z,18.83
2019-05-07T02:06:05.124Z,18.60
2019-05-07T02:08:53.025Z,18.80
2019-05-07T02:11:26.782Z,19.07
2019-05-07T02:13:56.246Z,19.50
2019-05-07T02:16:25.609Z,20.37
2019-05-07T02:18:54.997Z,21.53
2019-05-07T02:21:24.440Z,21.10
2019-05-07T02:23:53.801Z,20.10
2019-05-07T02:26:23.180Z,21.23
2019-05-07T02:28:52.551Z,21.37
2019-05-07T02:31:23.340Z,20.23
2019-05-07T02:33:54.154Z,22.07
2019-05-07T02:36:24.110Z,21.77
2019-05-07T02:38:55.116Z,22.97
2019-05-07T02:41:33.124Z,22.93
2019-05-07T02:44:04.229Z,22.83
2019-05-07T02:46:38.185Z,23.27
2019-05-07T02:49:25.332Z,22.67
2019-05-07T02:52:08.087Z,22.63
2019-05-07T02:54:56.892Z,23.20
2019-05-07T02:57:27.728Z,23.17
2019-05-07T02:59:57.115Z,23.67
2019-05-07T03:02:26.551Z,24.00
2019-05-07T03:04:57.054Z,22.27
2019-05-07T03:07:26.438Z,23.33
2019-05-07T03:09:55.824Z,24.27
2019-05-07T03:12:25.175Z,22.90
2019-05-07T03:14:55.799Z,22.83
2019-05-07T03:17:25.233Z,22.57
2019-05-07T03:19:55.796Z,23.77
2019-05-07T03:22:26.103Z,22.47
2019-05-07T03:25:15.258Z,21.87
2019-05-07T03:27:44.664Z,22.70
2019-05-07T03:30:17.108Z,22.07
2019-05-07T03:32:59.869Z,23.80
2019-05-07T03:35:36.447Z,22.50
2019-05-07T03:38:03.461Z,22.07
2019-05-07T03:40:34.348Z,22.93
2019-05-07T03:43:06.075Z,24.50
2019-05-07T03:45:36.401Z,21.93
2019-05-07T03:48:13.327Z,23.40
2019-05-07T03:50:43.100Z,25.83
2019-05-07T03:53:14.319Z,25.00
2019-05-07T03:55:44.611Z,24.70
2019-05-07T03:58:14.839Z,22.50
2019-05-07T04:00:44.815Z,23.23
2019-05-07T04:03:19.044Z,25.10
2019-05-07T04:05:45.323Z,24.83
2019-05-07T04:08:14.685Z,23.30
2019-05-07T04:10:44.604Z,23.83
2019-05-07T04:13:14.040Z,24.13
2019-05-07T04:15:44.193Z,24.10
2019-05-07T04:18:13.722Z,22.47
2019-05-07T04:20:43.814Z,24.80
2019-05-07T04:23:14.050Z,23.33
2019-05-07T04:26:04.237Z,23.80
2019-05-07T04:28:35.645Z,23.13
2019-05-07T04:31:06.346Z,25.67
2019-05-07T04:33:37.336Z,27.80
2019-05-07T04:36:08.358Z,25.70
2019-05-07T04:38:37.727Z,25.53
2019-05-07T04:41:07.088Z,25.57
2019-05-07T04:43:36.461Z,26.37
2019-05-07T04:46:06.899Z,27.20
2019-05-07T04:48:36.298Z,27.60
2019-05-07T04:51:07.293Z,27.90
2019-05-07T04:53:36.674Z,27.17
2019-05-07T04:56:06.048Z,26.50
2019-05-07T04:58:35.400Z,25.93
2019-05-07T05:01:06.164Z,26.50
2019-05-07T05:03:39.009Z,26.27
2019-05-07T05:06:06.592Z,26.77
2019-05-07T05:08:35.955Z,27.83
2019-05-07T05:11:05.313Z,28.17
2019-05-07T05:13:34.702Z,26.90
2019-05-07T05:16:05.887Z,27.63
2019-05-07T05:18:35.277Z,24.90
2019-05-07T05:21:06.337Z,27.37
2019-05-07T05:23:46.414Z,26.97
2019-05-07T05:26:15.775Z,27.10
2019-05-07T05:28:45.132Z,28.33
2019-05-07T05:31:14.509Z,27.07
2019-05-07T05:33:43.882Z,27.80
2019-05-07T05:36:13.316Z,27.60
2019-05-07T05:38:42.659Z,28.27
2019-05-07T05:41:12.443Z,26.60
2019-05-07T05:43:43.497Z,27.20
2019-05-07T05:46:14.514Z,29.20
2019-05-07T05:48:43.887Z,27.43
2019-05-07T05:51:32.371Z,28.00
2019-05-07T05:54:03.591Z,28.83
2019-05-07T05:56:34.594Z,28.40
2019-05-07T05:59:08.208Z,28.23
2019-05-07T06:01:52.096Z,29.03
2019-05-07T06:04:23.133Z,26.70
2019-05-07T06:07:11.198Z,27.83
2019-05-07T06:09:42.261Z,26.43
2019-05-07T06:12:19.302Z,26.43
2019-05-07T06:14:56.303Z,26.87
2019-05-07T06:17:33.280Z,27.13
2019-05-07T06:20:22.440Z,25.70
2019-05-07T06:23:09.185Z,26.13
2019-05-07T06:25:39.201Z,25.47
2019-05-07T06:28:08.564Z,26.10
2019-05-07T06:30:37.950Z,25.13
2019-05-07T06:33:07.400Z,24.23
2019-05-07T06:35:36.753Z,25.17
2019-05-07T06:38:07.913Z,25.30
2019-05-07T06:40:51.927Z,24.63
2019-05-07T06:43:34.989Z,23.57
2019-05-07T06:46:05.486Z,23.97
2019-05-07T06:48:42.294Z,23.90
2019-05-07T06:51:05.936Z,24.27
2019-05-07T06:53:35.334Z,24.13
2019-05-07T06:56:04.825Z,25.07
2019-05-07T06:58:41.999Z,24.53
2019-05-07T07:01:13.269Z,23.13
2019-05-07T07:03:59.362Z,23.97
2019-05-07T07:06:39.513Z,23.03
2019-05-07T07:09:28.320Z,23.77
2019-05-07T07:12:02.259Z,24.20
2019-05-07T07:14:33.194Z,23.10
2019-05-07T07:17:03.605Z,22.60
2019-05-07T07:19:35.880Z,22.53
2019-05-07T07:22:04.412Z,22.07
2019-05-07T07:24:33.777Z,22.80
2019-05-07T07:27:03.176Z,20.90
2019-05-07T07:29:35.141Z,20.50
2019-05-07T07:32:06.217Z,19.90
2019-05-07T07:34:37.228Z,21.13
2019-05-07T07:37:10.939Z,19.50
2019-05-07T07:39:39.338Z,20.03
2019-05-07T07:42:09.484Z,20.20
2019-05-07T07:44:38.857Z,18.10
2019-05-07T07:47:08.233Z,19.70
2019-05-07T07:49:37.632Z,18.87
2019-05-07T07:52:07.014Z,18.63
2019-05-07T07:54:36.363Z,19.17
2019-05-07T07:57:12.475Z,19.07
2019-05-07T07:59:48.656Z,17.53
2019-05-07T08:02:19.688Z,17.17
2019-05-07T08:04:49.066Z,17.47
2019-05-07T08:07:18.440Z,17.23
2019-05-07T08:09:47.824Z,17.17
2019-05-07T08:12:17.177Z,18.07
2019-05-07T08:14:46.539Z,17.67
2019-05-07T08:17:15.922Z,16.13
2019-05-07T08:19:45.285Z,16.57
2019-05-07T08:22:14.639Z,16.17
2019-05-07T08:24:43.994Z,14.77
2019-05-07T08:27:15.322Z,15.83
2019-05-07T08:29:44.410Z,14.63
2019-05-07T08:32:18.065Z,15.60
2019-05-07T08:34:52.222Z,15.70
2019-05-07T08:37:24.292Z,15.40
2019-05-07T08:39:52.657Z,15.40
2019-05-07T08:42:22.809Z,16.83
2019-05-07T08:45:00.048Z,15.37
2019-05-07T08:47:31.907Z,15.40
2019-05-07T08:50:02.904Z,15.23
2019-05-07T08:52:32.759Z,13.97
2019-05-07T08:55:02.320Z,12.80
2019-05-07T08:57:32.638Z,13.23
2019-05-07T09:00:04.614Z,15.77
2019-05-07T09:02:33.070Z,13.67
2019-05-07T09:05:02.937Z,13.87
2019-05-07T09:07:33.465Z,14.73
2019-05-07T09:10:02.911Z,13.80
2019-05-07T09:12:32.273Z,13.63
2019-05-07T09:15:02.329Z,15.73
2019-05-07T09:17:31.928Z,15.57
2019-05-07T09:20:02.648Z,14.57
2019-05-07T09:22:32.483Z,14.97
2019-05-07T09:25:03.056Z,15.30
2019-05-07T09:27:34.320Z,14.65
2019-05-07T09:30:09.252Z,15.37
2019-05-07T09:32:52.453Z,14.10
2019-05-07T09:35:29.514Z,13.10
2019-05-07T09:37:58.904Z,11.57
2019-05-07T09:40:28.301Z,12.20
2019-05-07T09:42:57.778Z,13.47
2019-05-07T09:45:28.119Z,12.90
2019-05-07T09:47:57.564Z,13.93
2019-05-07T09:50:26.943Z,13.87
2019-05-07T09:52:56.304Z,13.07
2019-05-07T09:55:25.798Z,13.23
2019-05-07T09:57:55.157Z,14.83
2019-05-07T10:00:25.165Z,14.77
2019-05-07T10:02:56.691Z,14.33
2019-05-07T10:05:25.735Z,13.33
2019-05-07T10:07:55.092Z,12.63
2019-05-07T10:10:24.478Z,12.63
2019-05-07T10:13:01.950Z,13.63
2019-05-07T10:15:33.126Z,13.03
2019-05-07T10:18:15.941Z,14.80
2019-05-07T10:20:45.846Z,14.73
2019-05-07T10:23:22.782Z,13.77
2019-05-07T10:25:53.241Z,13.70
2019-05-07T10:28:23.039Z,13.33
2019-05-07T10:30:52.749Z,14.67
2019-05-07T10:33:22.906Z,12.63
2019-05-07T10:35:52.931Z,14.17
2019-05-07T10:38:23.356Z,13.40
2019-05-07T10:40:52.761Z,14.00
2019-05-07T10:43:23.154Z,13.00
2019-05-07T10:45:59.850Z,12.90
2019-05-07T10:48:32.026Z,12.77
2019-05-07T10:51:02.697Z,16.53
2019-05-07T10:53:32.200Z,13.27
2019-05-07T10:56:02.714Z,13.67
2019-05-07T10:58:32.249Z,12.33
2019-05-07T11:01:02.850Z,13.23
2019-05-07T11:03:32.633Z,13.13
2019-05-07T11:06:02.013Z,13.20
2019-05-07T11:08:32.901Z,13.43
2019-05-07T11:11:02.916Z,12.27
2019-05-07T11:13:32.450Z,11.53
2019-05-07T11:16:11.633Z,13.27
2019-05-07T11:18:42.643Z,12.07
2019-05-07T11:21:12.084Z,13.13
2019-05-07T11:23:41.887Z,11.27
2019-05-07T11:26:11.751Z,10.37
2019-05-07T11:28:41.254Z,11.37
2019-05-07T11:31:12.387Z,10.43
2019-05-07T11:33:41.855Z,10.53
2019-05-07T11:36:11.240Z,10.43
2019-05-07T11:38:41.816Z,12.03
2019-05-07T11:41:12.779Z,10.77
2019-05-07T11:43:46.804Z,11.10
2019-05-07T11:46:23.809Z,10.50
2019-05-07T11:49:06.368Z,10.13
2019-05-07T11:51:37.422Z,10.87
2019-05-07T11:54:12.653Z,11.20
2019-05-07T11:56:42.913Z,11.17
2019-05-07T11:59:13.370Z,11.10
2019-05-07T12:01:47.801Z,11.40
2019-05-07T12:04:15.802Z,11.23
2019-05-07T12:06:45.182Z,10.83
2019-05-07T12:09:14.554Z,11.10
2019-05-07T12:11:43.918Z,11.80
2019-05-07T12:14:13.270Z,10.78
2019-05-07T12:16:42.835Z,10.93
2019-05-07T12:19:13.728Z,11.60
2019-05-07T12:21:43.304Z,9.90
2019-05-07T12:24:16.146Z,10.67
2019-05-07T12:26:44.205Z,11.43
2019-05-07T12:29:13.627Z,11.53
2019-05-07T12:31:47.744Z,11.17
2019-05-07T12:34:18.743Z,11.07
2019-05-07T12:36:48.102Z,10.77
2019-05-07T12:39:17.502Z,10.70
2019-05-07T12:41:46.879Z,9.97
2019-05-07T12:44:16.250Z,10.13
2019-05-07T12:46:45.608Z,9.87
2019-05-07T12:49:14.958Z,8.50
2019-05-07T12:51:48.850Z,8.30
2019-05-07T12:54:19.866Z,9.07
2019-05-07T12:56:49.222Z,9.77
2019-05-07T12:59:18.609Z,8.93
2019-05-07T13:01:52.567Z,8.87
2019-05-07T13:04:23.574Z,9.13
2019-05-07T13:06:57.363Z,9.30
2019-05-07T13:09:26.739Z,10.27
2019-05-07T13:11:56.165Z,10.00
2019-05-07T13:14:25.590Z,10.00
2019-05-07T13:16:54.947Z,9.57
2019-05-07T13:19:24.361Z,9.13
2019-05-07T13:21:53.717Z,8.77
2019-05-07T13:24:23.083Z,8.27
2019-05-07T13:26:52.441Z,7.83
2019-05-07T13:29:22.270Z,8.57
2019-05-07T13:31:54.650Z,8.40
2019-05-07T13:34:24.275Z,8.57
2019-05-07T13:37:04.635Z,8.43
2019-05-07T13:39:35.871Z,8.10
2019-05-07T13:42:12.925Z,8.00
2019-05-07T13:44:43.927Z,8.57
2019-05-07T13:47:17.510Z,7.90
2019-05-07T13:49:47.935Z,8.97
2019-05-07T13:52:17.348Z,8.50
2019-05-07T13:54:46.837Z,8.33
2019-05-07T13:57:16.188Z,7.73
2019-05-07T13:59:45.947Z,8.10
2019-05-07T14:02:17.024Z,8.10
2019-05-07T14:04:46.470Z,8.45
2019-05-07T14:07:16.361Z,8.28
2019-05-07T14:09:45.749Z,8.47
2019-05-07T14:12:15.103Z,8.13
2019-05-07T14:14:44.450Z,7.37
2019-05-07T14:17:13.827Z,8.03
2019-05-07T14:19:43.196Z,7.83
2019-05-07T14:22:18.020Z,7.07
2019-05-07T14:24:43.651Z,7.60
2019-05-07T14:27:13.007Z,6.00
2019-05-07T14:29:42.541Z,6.30
2019-05-07T14:32:13.556Z,6.10
2019-05-07T14:35:02.100Z,7.07
2019-05-07T14:37:33.239Z,7.33
2019-05-07T14:40:02.848Z,7.42
2019-05-07T14:42:49.739Z,6.97
2019-05-07T14:45:19.257Z,7.77
2019-05-07T14:47:48.614Z,6.87
2019-05-07T14:50:18.226Z,8.03
2019-05-07T14:52:47.642Z,8.63
2019-05-07T14:55:17.156Z,8.33
2019-05-07T14:57:46.581Z,8.83
2019-05-07T15:00:16.547Z,7.73
2019-05-07T15:02:46.168Z,8.17
2019-05-07T15:05:15.995Z,8.17
2019-05-07T15:07:45.347Z,8.10
2019-05-07T15:10:14.961Z,8.33
2019-05-07T15:12:44.398Z,8.90
2019-05-07T15:15:14.119Z,8.27
2019-05-07T15:17:45.695Z,7.60
2019-05-07T15:20:16.014Z,7.33
2019-05-07T15:22:55.745Z,7.93
2019-05-07T15:25:25.101Z,8.30
2019-05-07T15:27:54.474Z,7.37
2019-05-07T15:30:25.484Z,7.17
2019-05-07T15:32:54.834Z,7.10
2019-05-07T15:35:24.259Z,7.37
2019-05-07T15:37:53.772Z,7.70
2019-05-07T15:40:23.115Z,7.57
2019-05-07T15:42:53.463Z,8.27
2019-05-07T15:45:23.540Z,8.23
2019-05-07T15:47:54.549Z,7.50
2019-05-07T15:50:25.525Z,8.23
2019-05-07T15:52:58.655Z,7.97
2019-05-07T15:55:27.569Z,7.17
2019-05-07T15:57:57.567Z,7.20
2019-05-07T16:00:29.288Z,7.77
2019-05-07T16:03:02.058Z,7.80
2019-05-07T16:05:31.941Z,7.97
2019-05-07T16:08:01.769Z,8.63
2019-05-07T16:10:32.518Z,8.00
2019-05-07T16:13:01.867Z,7.70
2019-05-07T16:15:32.025Z,7.83
2019-05-07T16:18:03.138Z,8.43
2019-05-07T16:20:32.714Z,8.30
2019-05-07T16:23:14.014Z,8.23
2019-05-07T16:25:33.675Z,8.07
2019-05-07T16:28:04.938Z,8.13
2019-05-07T16:30:34.105Z,8.70
2019-05-07T16:33:03.560Z,7.83
2019-05-07T16:35:32.933Z,8.17
2019-05-07T16:38:02.279Z,8.50
2019-05-07T16:40:32.350Z,9.00
2019-05-07T16:43:02.753Z,8.80
2019-05-07T16:45:32.925Z,8.43
2019-05-07T16:48:03.187Z,13.20
2019-05-07T16:50:33.618Z,9.60
2019-05-07T16:53:03.043Z,9.10
2019-05-07T16:55:37.009Z,7.60
2019-05-07T16:58:14.058Z,8.43
2019-05-07T17:00:53.934Z,8.73
2019-05-07T17:03:27.579Z,9.60
2019-05-07T17:05:56.952Z,9.40
2019-05-07T17:08:33.417Z,8.97
2019-05-07T17:11:03.151Z,8.97
2019-05-07T17:13:33.478Z,8.83
2019-05-07T17:16:03.456Z,8.73
2019-05-07T17:18:32.988Z,8.77
2019-05-07T17:21:02.368Z,84.47
2019-05-07T17:23:43.774Z,14.00
2019-05-07T17:26:04.925Z,75.30
2019-05-07T17:28:34.423Z,20.67
2019-05-07T17:31:03.807Z,12.47
2019-05-07T17:33:33.171Z,24.20
2019-05-07T17:36:02.630Z,19.43
2019-05-07T17:38:33.038Z,12.60
2019-05-07T17:41:10.865Z,12.37
2019-05-07T17:43:33.481Z,12.00
2019-05-07T17:46:02.990Z,11.10
2019-05-07T17:48:33.103Z,11.57
2019-05-07T17:51:06.899Z,9.60
2019-05-07T17:53:36.430Z,8.93
2019-05-07T17:56:05.853Z,9.50
2019-05-07T17:58:35.228Z,8.23
2019-05-07T18:01:05.248Z,8.80
2019-05-07T18:03:36.255Z,8.57
2019-05-07T18:06:06.327Z,9.20
2019-05-07T18:08:35.751Z,9.10
2019-05-07T18:11:17.317Z,10.63
2019-05-07T18:13:36.395Z,9.60
2019-05-07T18:16:12.001Z,9.87
2019-05-07T18:18:43.059Z,10.20
2019-05-07T18:21:12.680Z,9.70
2019-05-07T18:23:42.016Z,9.87
2019-05-07T18:26:16.410Z,9.17
2019-05-07T18:28:42.461Z,10.00
2019-05-07T18:31:12.566Z,11.20
2019-05-07T18:33:52.224Z,11.60
2019-05-07T18:36:22.717Z,11.97
2019-05-07T18:38:52.837Z,9.93
2019-05-07T18:41:22.499Z,9.37
2019-05-07T18:43:54.471Z,9.67
2019-05-07T18:46:22.886Z,9.27
2019-05-07T18:48:52.262Z,9.67
2019-05-07T18:51:21.614Z,9.20
2019-05-07T18:53:51.962Z,9.43
2019-05-07T18:56:22.105Z,9.40
2019-05-07T18:58:52.135Z,8.87
2019-05-07T19:01:23.124Z,10.00
2019-05-07T19:03:52.944Z,9.20
2019-05-07T19:06:22.438Z,9.37
2019-05-07T19:08:52.684Z,10.30
2019-05-07T19:11:22.794Z,9.90
2019-05-07T19:13:53.563Z,10.70
2019-05-07T19:16:23.446Z,9.67
2019-05-07T19:18:52.808Z,8.67
2019-05-07T19:21:22.489Z,8.67
2019-05-07T19:23:52.947Z,8.93
2019-05-07T19:26:22.487Z,9.07
2019-05-07T19:28:51.885Z,9.73
2019-05-07T19:31:22.000Z,9.77
2019-05-07T19:33:52.534Z,10.77
2019-05-07T19:36:22.429Z,10.83
2019-05-07T19:38:52.605Z,10.03
2019-05-07T19:41:22.031Z,11.20
2019-05-07T19:43:52.748Z,10.40
2019-05-07T19:46:22.864Z,9.83
2019-05-07T19:48:52.311Z,11.10
2019-05-07T19:51:21.663Z,10.43
2019-05-07T19:53:52.584Z,11.60
2019-05-07T19:56:23.622Z,10.73
2019-05-07T19:58:53.142Z,11.27
2019-05-07T20:01:24.289Z,10.43
2019-05-07T20:03:53.667Z,10.67
2019-05-07T20:06:23.542Z,11.27
2019-05-07T20:08:53.132Z,10.87
2019-05-07T20:11:33.038Z,11.00
2019-05-07T20:14:02.466Z,10.67
2019-05-07T20:16:32.906Z,10.50
2019-05-07T20:19:02.540Z,10.00
2019-05-07T20:21:32.684Z,9.80
2019-05-07T20:24:02.125Z,10.17
2019-05-07T20:26:32.299Z,10.37
2019-05-07T20:29:03.026Z,11.57
2019-05-07T20:31:33.567Z,11.03
2019-05-07T20:34:03.169Z,11.07
2019-05-07T20:36:32.904Z,11.00
2019-05-07T20:39:02.477Z,9.90
2019-05-07T20:41:33.444Z,10.53
2019-05-07T20:44:03.098Z,11.97
2019-05-07T20:46:33.168Z,10.43
2019-05-07T20:49:03.097Z,10.57
2019-05-07T20:51:32.750Z,11.47
2019-05-07T20:54:03.767Z,11.40
2019-05-07T20:56:34.791Z,11.00
2019-05-07T20:59:04.133Z,11.20
2019-05-07T21:01:34.478Z,9.87
2019-05-07T21:04:03.851Z,11.60
2019-05-07T21:06:33.221Z,9.90
2019-05-07T21:09:02.573Z,10.87
2019-05-07T21:11:33.609Z,10.63
2019-05-07T21:14:03.373Z,10.40
2019-05-07T21:16:33.824Z,10.57
2019-05-07T21:19:03.207Z,10.37
2019-05-07T21:21:32.850Z,10.97
2019-05-07T21:24:02.336Z,10.03
2019-05-07T21:26:32.758Z,10.87
2019-05-07T21:29:03.080Z,10.40
2019-05-07T21:31:32.609Z,9.83
2019-05-07T21:34:03.152Z,10.50
2019-05-07T21:36:32.632Z,9.93
2019-05-07T21:39:02.453Z,10.80
2019-05-07T21:41:33.649Z,9.97
2019-05-07T21:44:03.041Z,9.77
2019-05-07T21:46:33.026Z,10.73
2019-05-07T21:49:03.397Z,10.80
2019-05-07T21:51:32.748Z,11.47
2019-05-07T21:54:09.387Z,10.20
2019-05-07T21:56:46.071Z,10.60
2019-05-07T21:59:17.074Z,10.53
2019-05-07T22:01:48.080Z,10.37
2019-05-07T22:04:17.454Z,9.97
2019-05-07T22:06:46.793Z,9.97
2019-05-07T22:09:16.500Z,10.40
2019-05-07T22:11:46.032Z,10.10
2019-05-07T22:14:15.508Z,8.93
2019-05-07T22:16:44.862Z,9.70
2019-05-07T22:19:14.208Z,9.47
2019-05-07T22:21:43.559Z,9.03
2019-05-07T22:24:15.096Z,9.10
2019-05-07T22:26:43.999Z,8.10
2019-05-07T22:29:14.340Z,8.40
2019-05-07T22:31:48.084Z,8.73
2019-05-07T22:34:34.175Z,8.57
2019-05-07T22:37:04.000Z,8.07
2019-05-07T22:39:43.960Z,7.90
2019-05-07T22:42:17.962Z,7.70
2019-05-07T22:44:47.352Z,8.03
2019-05-07T22:47:22.193Z,8.37
2019-05-07T22:49:53.733Z,8.30
2019-05-07T22:52:22.532Z,7.87
2019-05-07T22:54:51.933Z,8.73
2019-05-07T22:57:25.633Z,8.33
2019-05-07T22:59:54.989Z,7.50
2019-05-07T23:02:24.382Z,7.57
2019-05-07T23:04:53.748Z,6.97
2019-05-07T23:07:23.077Z,7.60
2019-05-07T23:09:52.440Z,7.60
2019-05-07T23:12:22.056Z,7.50
2019-05-07T23:14:53.667Z,7.77
2019-05-07T23:17:22.549Z,7.47
2019-05-07T23:19:54.871Z,7.83
2019-05-07T23:22:22.964Z,7.43
2019-05-07T23:24:52.319Z,7.30
2019-05-07T23:27:22.429Z,7.23
2019-05-07T23:29:52.969Z,7.10
2019-05-07T23:32:22.403Z,7.33
2019-05-07T23:34:52.735Z,7.57
2019-05-07T23:37:22.588Z,7.40
2019-05-07T23:39:53.663Z,7.13
2019-05-07T23:42:24.636Z,7.00
2019-05-07T23:44:53.977Z,7.53
2019-05-07T23:47:24.300Z,6.93
2019-05-07T23:49:53.661Z,7.00
2019-05-07T23:52:23.002Z,7.17
2019-05-07T23:54:52.366Z,7.17
2019-05-07T23:57:23.186Z,7.63
2019-05-07T23:59:53.066Z,7.00
